• Join FlightAware (Why Join?)
  • Login
  • US Flag GB Flag 
22:43 EDT


 

Airport Tracker/Info


-or-


 

Live Flight TrackerFlight Track Log ✈ UAL6148 ✈ 29-Apr-2013 ✈ KORD - KLNK

Flight Track Log - Related Links

Times and Time Zones

All times are in EDT time to prevent confusion due to time zone crossing. See the UAL6148 flight status page for this flight to view local times or setup timezone preferences in your user account.

Time Position Orientation Groundspeed Altitude Reporting Facility
EDT Latitude Longitude Course Direction KTS MPH feet Rate Location/Type
18:52 41.9667 -87.9833 261° West 198 228 3,300  Level Chicago TRACON
18:53 41.9667 -88.0667 270° West 248 285 4,700 1,680 Climbing Chicago TRACON
18:54 41.9722 -88.1500 275° West 239 275 6,800 2,520 Climbing Chicago Center
18:55 41.9733 -88.2661 271° West 258 297 10,100 2,040 Climbing Chicago Center
18:56 41.9678 -88.3711 266° West 284 327 11,100 1,260 Climbing Chicago Center
18:57 41.9072 -88.5474 261° West  Level FlightAware Approximate
18:57 41.9542 -88.4911 261° West 322 371 12,800  Level Chicago Center
18:58 41.9400 -88.6081 261° West 322 371 15,200 1,860 Climbing Chicago Center
18:59 41.9197 -88.7475 259° West 320 368 16,800 1,500 Climbing Chicago Center
19:00 41.9039 -88.8731 260° West 340 391 18,400 1,560 Climbing Chicago Center
19:01 41.8914 -88.9972 262° West 340 391 20,100 1,680 Climbing Chicago Center
19:02 41.8775 -89.1236 262° West 344 396 21,900 2,160 Climbing Chicago Center
19:03 41.8619 -89.2706 262° West 337 388 24,600 2,100 Climbing Chicago Center
19:04 41.8514 -89.3878 263° West 324 373 26,300 1,560 Climbing Chicago Center
19:05 41.8408 -89.5044 263° West 319 367 27,900 1,500 Climbing Chicago Center
19:06 41.8283 -89.6192 262° West 314 361 29,500 1,500 Climbing Chicago Center
19:07 41.8156 -89.7356 262° West 318 366 31,000 1,140 Climbing Chicago Center
19:08 41.8014 -89.8758 262° West 320 368 31,900 480 Climbing Chicago Center
19:09 41.7878 -90.0103 262° West 353 406 32,000  Climbing Chicago Center
19:10 41.7725 -90.1508 262° West 378 435 32,000  Level Chicago Center
19:11 41.7564 -90.3036 262° West 411 473 32,000  Level Chicago Center
19:12 41.7386 -90.4544 261° West 411 473 32,000  Level Chicago Center
19:13 41.7228 -90.6028 262° West 405 466 32,000  Level Chicago Center
19:14 41.7044 -90.7575 261° West 407 468 32,000  Level Chicago Center
19:16 41.6875 -90.9061 261° West 405 466 32,000  Level Chicago Center
19:17 41.6672 -91.0822 261° West 404 465 32,000  Level Chicago Center
19:18 41.6494 -91.2314 261° West 406 467 32,000  Level Chicago Center
19:19 41.6314 -91.3786 261° West 404 465 32,000  Level Chicago Center
19:20 41.6131 -91.5269 261° West 406 467 32,000  Level Chicago Center
19:21 41.5953 -91.6731 261° West 402 463 32,000  Level Chicago Center
19:22 41.5731 -91.8511 261° West 406 467 32,000  Level Chicago Center
19:23 41.5556 -91.9978 261° West 403 464 32,000  Level Chicago Center
19:24 41.5356 -92.1425 260° West 401 461 32,000  Level Chicago Center
19:25 41.5172 -92.2925 261° West 406 467 32,000  Level Chicago Center
19:26 41.4969 -92.4389 260° West 407 468 32,000  Level Chicago Center
19:27 41.4764 -92.6106 261° West 412 474 32,000  Level Chicago Center
19:28 41.4567 -92.7586 260° West 411 473 32,000  Level Chicago Center
19:29 41.4369 -92.9044 260° West 407 468 32,000  Level Chicago Center
19:30 41.4178 -93.0514 260° West 406 467 32,000  Level Chicago Center
19:31 41.3933 -93.2272 260° West 407 468 32,000  Level Chicago Center
19:32 41.3731 -93.3733 260° West 405 466 32,000  Level Chicago Center
19:33 41.3531 -93.5208 260° West 410 472 32,000  Level Chicago Center
19:34 41.3317 -93.6661 259° West 406 467 32,000  Level Chicago Center
19:35 41.3072 -93.8444 260° West 413 475 32,000  Level Chicago Center
19:36 41.2853 -93.9944 259° West 417 480 32,000  Level Chicago Center
19:37 41.2633 -94.1431 259° West 418 481 32,000  Level Chicago Center
19:38 41.2428 -94.2939 260° West 417 480 32,000  Level Chicago Center
19:39 41.2192 -94.4447 258° West 420 483 32,000 -360 Level Chicago Center
19:40 41.1950 -94.6178 260° West 425 489 31,300 -1,380 Descending Minneapolis Center
19:41 41.1719 -94.7739 259° West 428 493 29,200 -2,400 Descending Minneapolis Center
19:42 41.1414 -94.9672 258° West 440 506 26,500 -2,460 Descending Minneapolis Center
19:43 41.1167 -95.1250 258° West 439 505 24,200 -2,340 Descending Minneapolis Center
19:44 41.0919 -95.2753 258° West 424 488 21,800 -2,340 Descending Minneapolis Center
19:45 41.0775 -95.4053 262° West 381 438 19,700 -2,220 Descending Minneapolis Center
19:46 41.0631 -95.4956 258° West 355 409 18,200 -2,340 Descending Minneapolis Center
19:47 41.0500 -95.5431 250° West 379 436 17,100 -2,400 Descending Minneapolis Center
19:47 41.0403 -95.6228 261° West 353 406 15,800 -1,620 Descending Minneapolis Center
19:48 41.0306 -95.6711 255° West 361 415 15,200 -1,620 Descending Minneapolis Center
19:48 41.0197 -95.7497 260° West 352 405 14,200 -1,560 Descending Minneapolis Center
19:49 41.0058 -95.8225 256° West 350 403 13,300 -1,440 Descending Minneapolis Center
19:50 40.9839 -95.9575 258° West 314 361 11,500 -1,380 Descending Minneapolis Center
19:51 40.9714 -96.0636 261° West 295 339 10,500 -1,200 Descending Minneapolis Center
19:52 40.9656 -96.1644 266° West 243 280 9,200 -1,200 Descending Minneapolis Center
19:53 40.9608 -96.2561 266° West 254 292 8,200 -1,020 Descending Minneapolis Center
19:54 40.9603 -96.3678 270° West 258 297 7,100 -1,020 Descending Minneapolis Center
19:55 40.9572 -96.4692 268° West 266 306 6,100 -840 Descending Minneapolis Center
19:56 40.9522 -96.5711 266° West 272 313 5,400 -720 Descending Minneapolis Center
19:57 40.9358 -96.6642 257° West 264 304 4,700 -1,260 Descending Minneapolis Center
19:58 40.9281 -96.7478 263° West 176 203 2,900 -1,320 Descending Minneapolis Center
19:59 40.8911 -96.7572 191° South 131 151 2,100 -540 Descending Minneapolis Center
20:01 40.8633 -96.7606 185° South 158 182 1,700 -300 Descending Minneapolis Center